RK6A weather

C 827 Heliport
Busan Gwang'yeogsi, South Korea

Public forecast

Using degrees Celsius for public forecast. Weather courtesy of forecast.io.

METAR (pilot weather report)

Closest report is Gimhae International Airport, 10.8 nm (19.9 km) W. Retrieved 2019/08/24 21:00 UTC (52 seconds ago):

RKPK 242100Z 36004KT CAVOK 21/18 Q1012

TAF (pilot weather forecast)

Closest forecast is Gimhae International Airport, 10.8 nm (19.9 km) W. Retrieved 2019/08/24 18:00 UTC (3 hours ago):

TAF RKPK 241700Z 2418/2524 33006KT 9999 SCT030 SCT200 TN19/2420Z TX28/2505Z BECMG 2504/2505 21008KT BECMG 2512/2513 33006KT